Time;durP1;ratioP1;P1;durP2;ratioP2;P2;SDS_P1;SDS_P2;PMS_P1;PMS_P2;Temp;Humidity;BMP_temperature;BMP_pressure;BME280_temperature;BME280_humidity;BME280_pressure;Samples;Min_cycle;Max_cycle;Signal;HPM_P1;HPM_P2
2021/05/24 00:00:36;;;;;;;0.93;0.40;;;9.90;99.90;;;;;;5066563;28;20122;-75
2021/05/24 00:03:01;;;;;;;0.95;0.60;;;9.90;99.90;;;;;;5066044;28;20085;-75
2021/05/24 00:05:29;;;;;;;1.20;0.60;;;9.90;99.90;;;;;;5066519;28;20279;-76
2021/05/24 00:07:55;;;;;;;1.02;0.43;;;9.80;99.90;;;;;;5065706;28;20624;-75
2021/05/24 00:10:23;;;;;;;0.75;0.50;;;9.90;99.90;;;;;;5065673;28;20160;-76
2021/05/24 00:12:50;;;;;;;0.63;0.35;;;9.90;99.90;;;;;;5066560;28;20081;-75
2021/05/24 00:15:23;;;;;;;4.63;1.83;;;9.90;99.90;;;;;;5034146;28;20098;-75
2021/05/24 00:17:49;;;;;;;0.50;0.40;;;9.80;99.90;;;;;;5061807;28;20073;-76
2021/05/24 00:20:16;;;;;;;1.67;0.60;;;9.80;99.90;;;;;;5043364;28;20073;-75
2021/05/24 00:22:42;;;;;;;0.93;0.50;;;9.80;99.90;;;;;;5066360;28;20084;-76
2021/05/24 00:25:09;;;;;;;0.50;0.30;;;9.70;99.90;;;;;;5063264;28;20125;-75
2021/05/24 00:27:34;;;;;;;1.88;0.60;;;9.70;99.90;;;;;;5047550;28;20091;-76
2021/05/24 00:30:00;;;;;;;3.50;0.40;;;9.60;99.90;;;;;;5048747;28;20069;-76
2021/05/24 00:32:26;;;;;;;1.52;0.55;;;9.70;99.90;;;;;;5048086;28;20612;-75
2021/05/24 00:34:51;;;;;;;1.75;0.52;;;9.70;99.90;;;;;;5064047;28;20108;-76
2021/05/24 00:37:17;;;;;;;0.52;0.45;;;9.80;99.90;;;;;;5064703;28;20096;-75
2021/05/24 00:39:43;;;;;;;2.92;0.70;;;9.90;99.90;;;;;;5066398;28;20097;-76
2021/05/24 00:42:09;;;;;;;1.55;0.65;;;9.80;99.90;;;;;;5060704;28;20156;-76
2021/05/24 00:44:36;;;;;;;2.03;0.80;;;9.90;99.90;;;;;;5046571;28;20107;-75
2021/05/24 00:47:01;;;;;;;1.42;0.60;;;9.90;99.90;;;;;;5052771;28;20154;-75
2021/05/24 00:49:29;;;;;;;2.33;0.50;;;10.00;99.90;;;;;;5069490;28;20908;-76
2021/05/24 00:51:56;;;;;;;1.65;0.40;;;9.90;99.90;;;;;;5050477;28;20077;-75
2021/05/24 00:54:23;;;;;;;1.13;0.68;;;9.90;99.90;;;;;;5068273;28;20081;-75
2021/05/24 00:56:48;;;;;;;1.23;0.40;;;9.90;99.90;;;;;;5067264;28;20069;-75
2021/05/24 00:59:15;;;;;;;1.67;0.50;;;9.80;99.90;;;;;;5068729;28;20418;-76
2021/05/24 01:01:41;;;;;;;0.75;0.50;;;9.90;99.90;;;;;;5066338;28;20447;-76
2021/05/24 01:04:06;;;;;;;0.57;0.40;;;9.80;99.90;;;;;;5064854;28;20139;-75
2021/05/24 01:06:32;;;;;;;0.95;0.47;;;9.70;99.90;;;;;;5065049;28;20073;-76
2021/05/24 01:08:58;;;;;;;0.95;0.47;;;9.70;99.90;;;;;;5065569;28;20621;-74
2021/05/24 01:11:24;;;;;;;1.90;0.47;;;9.70;99.90;;;;;;5065837;28;20108;-75
2021/05/24 01:13:49;;;;;;;2.03;0.35;;;9.80;99.90;;;;;;5065864;28;20104;-74
2021/05/24 01:16:15;;;;;;;0.68;0.50;;;9.80;99.90;;;;;;5061549;28;20568;-75
2021/05/24 01:18:41;;;;;;;1.55;0.68;;;9.80;99.90;;;;;;5065605;28;20085;-75
2021/05/24 01:21:09;;;;;;;2.97;0.70;;;9.80;99.90;;;;;;5044179;28;20100;-75
2021/05/24 01:23:38;;;;;;;0.90;0.50;;;9.80;99.90;;;;;;5063085;28;20104;-75
2021/05/24 01:26:04;;;;;;;1.10;0.40;;;9.80;99.90;;;;;;5047046;28;20096;-75
2021/05/24 01:28:29;;;;;;;4.07;1.20;;;9.70;99.90;;;;;;5063928;28;20139;-75
2021/05/24 01:30:55;;;;;;;2.38;0.60;;;9.70;99.90;;;;;;5048023;28;20108;-75
2021/05/24 01:33:27;;;;;;;1.85;0.57;;;9.70;99.90;;;;;;5046458;28;20073;-75
2021/05/24 01:35:52;;;;;;;0.70;0.57;;;9.70;99.90;;;;;;5043486;28;20475;-76
2021/05/24 01:38:19;;;;;;;0.88;0.40;;;9.70;99.90;;;;;;5062301;28;20107;-75
2021/05/24 01:40:47;;;;;;;1.27;1.02;;;9.80;99.90;;;;;;5067239;28;20152;-76
2021/05/24 01:43:13;;;;;;;0.70;0.50;;;9.70;99.90;;;;;;5067714;28;20439;-76
2021/05/24 01:45:39;;;;;;;1.48;0.68;;;9.60;99.90;;;;;;5065119;28;20097;-75
2021/05/24 01:48:06;;;;;;;1.75;0.68;;;9.60;99.90;;;;;;5073756;28;20123;-75
2021/05/24 01:50:32;;;;;;;2.08;0.40;;;9.60;99.90;;;;;;5066361;28;20149;-75
2021/05/24 01:52:57;;;;;;;0.60;0.40;;;9.60;99.90;;;;;;5067137;28;20160;-76
2021/05/24 01:55:23;;;;;;;0.82;0.50;;;9.60;99.90;;;;;;5047527;28;20100;-76
2021/05/24 01:57:49;;;;;;;0.52;0.45;;;9.50;99.90;;;;;;5066736;28;20160;-76
2021/05/24 02:00:17;;;;;;;0.55;0.43;;;9.50;99.90;;;;;;5066467;28;20105;-76
2021/05/24 02:02:44;;;;;;;0.20;0.20;;;9.50;99.90;;;;;;5066739;28;20073;-76
2021/05/24 02:05:11;;;;;;;0.75;0.45;;;9.60;99.90;;;;;;5067216;28;20123;-76
2021/05/24 02:07:38;;;;;;;0.90;0.60;;;9.50;99.90;;;;;;5066959;28;20155;-76
2021/05/24 02:10:10;;;;;;;0.98;0.43;;;9.60;99.90;;;;;;5048412;28;20084;-76
2021/05/24 02:12:35;;;;;;;0.65;0.45;;;9.60;99.90;;;;;;5043165;28;20595;-76
2021/05/24 02:15:03;;;;;;;0.82;0.50;;;9.70;99.90;;;;;;5065570;28;20097;-76
2021/05/24 02:17:29;;;;;;;1.02;0.50;;;9.70;99.90;;;;;;5055200;28;20081;-75
2021/05/24 02:19:55;;;;;;;0.38;0.38;;;9.70;99.90;;;;;;5070628;28;20484;-76
2021/05/24 02:22:20;;;;;;;1.15;0.38;;;9.70;99.90;;;;;;5069616;28;20146;-75
2021/05/24 02:24:46;;;;;;;1.52;0.43;;;9.60;99.90;;;;;;5069756;28;20714;-75
2021/05/24 02:27:12;;;;;;;2.08;0.50;;;9.50;99.90;;;;;;5070816;28;20127;-75
2021/05/24 02:29:38;;;;;;;1.10;0.50;;;9.70;99.90;;;;;;5071439;28;20421;-76
2021/05/24 02:32:04;;;;;;;1.00;0.25;;;9.70;99.90;;;;;;5070055;28;20107;-76
2021/05/24 02:34:30;;;;;;;0.70;0.40;;;9.70;99.90;;;;;;5069677;28;20093;-76
2021/05/24 02:36:57;;;;;;;0.98;0.47;;;9.70;99.90;;;;;;5071071;28;20523;-75
2021/05/24 02:39:22;;;;;;;1.00;0.35;;;9.70;99.90;;;;;;5071610;28;20064;-76
2021/05/24 02:41:48;;;;;;;1.63;0.40;;;9.60;99.90;;;;;;5069153;28;20092;-76
2021/05/24 02:44:13;;;;;;;0.93;0.35;;;9.60;99.90;;;;;;5071669;28;20151;-76
2021/05/24 02:46:40;;;;;;;3.55;0.40;;;9.60;99.90;;;;;;5058921;28;20082;-75
2021/05/24 02:49:06;;;;;;;0.57;0.30;;;9.50;99.90;;;;;;5056864;28;20120;-76
2021/05/24 02:51:32;;;;;;;0.47;0.30;;;9.50;99.90;;;;;;5069999;28;20084;-76
2021/05/24 02:53:58;;;;;;;1.10;0.50;;;9.60;99.90;;;;;;5069169;28;20093;-76
2021/05/24 02:56:23;;;;;;;4.18;0.65;;;9.60;99.90;;;;;;5060495;28;20092;-76
2021/05/24 02:58:49;;;;;;;0.20;0.20;;;9.70;99.90;;;;;;5070966;28;20095;-76
2021/05/24 03:01:15;;;;;;;0.73;0.38;;;9.70;99.90;;;;;;5052829;28;20081;-76
2021/05/24 03:03:41;;;;;;;1.58;0.40;;;9.70;99.90;;;;;;5070178;28;20073;-75
2021/05/24 03:06:07;;;;;;;2.30;0.30;;;9.70;99.90;;;;;;5067959;28;20130;-76
2021/05/24 03:08:32;;;;;;;4.00;0.40;;;9.80;99.90;;;;;;5069751;28;20097;-76
2021/05/24 03:10:59;;;;;;;0.95;0.32;;;9.70;99.90;;;;;;5070779;28;20081;-76
2021/05/24 03:13:26;;;;;;;0.30;0.30;;;9.80;99.90;;;;;;5052786;28;20079;-75
2021/05/24 03:15:57;;;;;;;0.55;0.20;;;9.70;99.90;;;;;;5062377;28;20081;-76
2021/05/24 03:18:23;;;;;;;1.65;0.30;;;9.70;99.90;;;;;;5067758;28;20614;-76
2021/05/24 03:20:49;;;;;;;2.08;0.17;;;9.70;99.90;;;;;;5082590;28;20088;-76
2021/05/24 03:23:14;;;;;;;0.80;0.30;;;9.70;99.90;;;;;;5069734;28;20445;-76
2021/05/24 03:25:40;;;;;;;0.52;0.30;;;9.70;99.90;;;;;;5054951;28;20105;-76
2021/05/24 03:28:06;;;;;;;0.93;0.30;;;9.70;99.90;;;;;;5066597;28;20210;-76
2021/05/24 03:30:32;;;;;;;0.70;0.10;;;9.70;99.90;;;;;;5068967;28;20104;-76
2021/05/24 03:32:58;;;;;;;2.30;0.20;;;9.60;99.90;;;;;;5067631;28;20096;-76
2021/05/24 03:35:23;;;;;;;0.85;0.30;;;9.60;99.90;;;;;;5066775;28;20172;-76
2021/05/24 03:37:49;;;;;;;1.05;0.35;;;9.60;99.90;;;;;;5051552;28;20156;-76
2021/05/24 03:40:16;;;;;;;1.10;0.50;;;9.50;99.90;;;;;;5045978;28;20123;-76
2021/05/24 03:42:41;;;;;;;0.82;0.20;;;9.50;99.90;;;;;;5067627;28;20073;-76
2021/05/24 03:45:11;;;;;;;0.52;0.30;;;9.60;99.90;;;;;;5066388;28;20437;-76
2021/05/24 03:47:37;;;;;;;2.13;0.40;;;9.60;99.90;;;;;;5062648;28;20120;-76
2021/05/24 03:50:04;;;;;;;0.75;0.30;;;9.50;99.90;;;;;;5069482;28;20111;-76
2021/05/24 03:52:30;;;;;;;1.13;0.20;;;9.40;99.90;;;;;;5067420;28;20087;-77
2021/05/24 03:54:55;;;;;;;0.52;0.40;;;9.50;99.90;;;;;;5059879;28;20090;-77
2021/05/24 03:57:21;;;;;;;1.45;0.30;;;9.50;99.90;;;;;;5049564;28;20083;-76
2021/05/24 03:59:47;;;;;;;1.17;0.40;;;9.50;99.90;;;;;;5067957;28;20858;-75
2021/05/24 04:02:12;;;;;;;0.30;0.20;;;9.50;99.90;;;;;;5051530;28;20111;-76
2021/05/24 04:04:39;;;;;;;0.45;0.35;;;9.60;99.90;;;;;;5050582;28;20100;-76
2021/05/24 04:07:06;;;;;;;1.65;0.20;;;9.50;99.90;;;;;;5065762;28;20108;-75
2021/05/24 04:09:32;;;;;;;0.73;0.30;;;9.40;99.90;;;;;;5066959;28;20077;-76
2021/05/24 04:11:58;;;;;;;1.25;0.40;;;9.50;99.90;;;;;;5066732;28;20073;-76
2021/05/24 04:14:23;;;;;;;0.95;0.43;;;9.50;99.90;;;;;;5068830;28;20141;-76
2021/05/24 04:16:49;;;;;;;0.38;0.20;;;9.60;99.90;;;;;;5067660;28;20077;-76
2021/05/24 04:19:15;;;;;;;0.90;0.30;;;9.60;99.90;;;;;;5065577;28;20647;-76
2021/05/24 04:21:43;;;;;;;2.15;0.40;;;9.60;99.90;;;;;;5067390;28;20607;-76
2021/05/24 04:24:11;;;;;;;1.95;0.50;;;9.70;99.90;;;;;;5047397;28;20139;-75
2021/05/24 04:26:37;;;;;;;2.88;0.60;;;9.70;99.90;;;;;;5063698;28;20077;-76
2021/05/24 04:29:04;;;;;;;1.60;0.70;;;9.60;99.90;;;;;;5060679;28;20093;-76
2021/05/24 04:31:29;;;;;;;0.88;0.30;;;9.60;99.90;;;;;;5064070;28;20476;-76
2021/05/24 04:33:55;;;;;;;1.08;0.10;;;9.60;99.90;;;;;;5068400;28;20089;-76
2021/05/24 04:36:21;;;;;;;0.98;0.43;;;9.60;99.90;;;;;;5067738;28;20549;-76
2021/05/24 04:38:47;;;;;;;0.22;0.20;;;9.60;99.90;;;;;;5068501;28;20073;-76
2021/05/24 04:41:12;;;;;;;0.52;0.28;;;9.60;99.90;;;;;;5063707;28;20202;-76
2021/05/24 04:43:40;;;;;;;1.23;0.30;;;9.70;99.90;;;;;;5064763;28;20081;-75
2021/05/24 04:46:06;;;;;;;0.82;0.30;;;9.60;99.90;;;;;;5050232;28;20080;-75
2021/05/24 04:48:34;;;;;;;1.45;0.47;;;9.50;99.90;;;;;;5067795;28;20089;-76
2021/05/24 04:51:00;;;;;;;0.57;0.38;;;9.60;99.90;;;;;;5063658;28;20073;-76
2021/05/24 04:53:25;;;;;;;0.65;0.25;;;9.60;99.90;;;;;;5062473;28;20080;-75
2021/05/24 04:55:51;;;;;;;0.65;0.30;;;9.60;99.90;;;;;;5059686;28;20112;-76
2021/05/24 04:58:17;;;;;;;1.40;0.32;;;9.60;99.90;;;;;;5049555;28;20555;-76
2021/05/24 05:00:42;;;;;;;1.90;0.35;;;9.70;99.90;;;;;;5065256;28;20081;-76
2021/05/24 05:03:08;;;;;;;0.70;0.40;;;9.70;99.90;;;;;;5048077;28;20088;-75
2021/05/24 05:05:34;;;;;;;1.17;0.50;;;9.70;99.90;;;;;;5048028;28;20557;-76
2021/05/24 05:08:00;;;;;;;2.03;0.63;;;9.70;99.90;;;;;;5047128;28;20090;-76
2021/05/24 05:10:26;;;;;;;2.05;0.70;;;9.70;99.90;;;;;;5067669;28;20162;-76
2021/05/24 05:12:52;;;;;;;0.40;0.30;;;9.70;99.90;;;;;;5047731;28;20098;-76
2021/05/24 05:15:18;;;;;;;0.22;0.20;;;9.70;99.90;;;;;;5048121;28;20097;-76
2021/05/24 05:17:43;;;;;;;0.82;0.30;;;9.80;99.90;;;;;;5063704;28;20280;-75
2021/05/24 05:20:10;;;;;;;0.57;0.40;;;9.80;99.90;;;;;;5066486;28;20085;-76
2021/05/24 05:22:36;;;;;;;2.75;0.30;;;9.80;99.90;;;;;;5068199;28;20072;-76
2021/05/24 05:25:01;;;;;;;0.63;0.30;;;9.90;99.90;;;;;;5060836;28;20471;-76
2021/05/24 05:27:27;;;;;;;1.23;0.40;;;9.90;99.90;;;;;;5067305;28;20141;-77
2021/05/24 05:29:52;;;;;;;2.42;0.47;;;9.90;99.90;;;;;;5067761;28;20073;-76
2021/05/24 05:32:18;;;;;;;1.17;0.43;;;9.90;99.90;;;;;;5067407;28;20872;-76
2021/05/24 05:34:43;;;;;;;1.17;0.30;;;9.90;99.90;;;;;;5064991;28;20085;-76
2021/05/24 05:37:09;;;;;;;0.57;0.30;;;9.90;99.90;;;;;;5047633;28;20065;-76
2021/05/24 05:39:35;;;;;;;3.20;0.60;;;9.90;99.90;;;;;;5069351;28;20076;-76
2021/05/24 05:42:00;;;;;;;0.95;0.35;;;9.90;99.90;;;;;;5068266;28;20112;-76
2021/05/24 05:44:26;;;;;;;1.17;0.50;;;9.90;99.90;;;;;;5068604;28;20146;-76
2021/05/24 05:46:52;;;;;;;0.93;0.30;;;9.90;99.90;;;;;;5064700;28;20521;-75
2021/05/24 05:49:17;;;;;;;0.65;0.30;;;9.90;99.90;;;;;;5066980;28;20095;-76
2021/05/24 05:51:43;;;;;;;0.60;0.30;;;9.90;99.90;;;;;;5066833;28;20090;-76
2021/05/24 05:54:09;;;;;;;1.58;0.40;;;9.90;99.90;;;;;;5068245;28;20116;-76
2021/05/24 05:56:34;;;;;;;1.15;0.30;;;9.90;99.90;;;;;;5068910;28;20080;-76
2021/05/24 05:59:00;;;;;;;1.75;0.30;;;10.00;99.90;;;;;;5051200;28;20489;-76
2021/05/24 06:01:26;;;;;;;9.55;1.13;;;10.00;99.90;;;;;;5060032;28;20481;-76
2021/05/24 06:03:51;;;;;;;1.10;0.28;;;10.00;99.90;;;;;;5071054;28;20097;-76
2021/05/24 06:06:18;;;;;;;1.17;0.52;;;10.10;99.90;;;;;;5052371;28;20096;-76
2021/05/24 06:08:44;;;;;;;0.70;0.30;;;10.10;99.90;;;;;;5070476;28;20081;-76
2021/05/24 06:11:09;;;;;;;1.20;0.40;;;10.10;99.90;;;;;;5071486;28;20077;-76
2021/05/24 06:13:35;;;;;;;0.70;0.50;;;10.20;99.90;;;;;;5071110;28;20554;-76
2021/05/24 06:16:01;;;;;;;5.18;1.05;;;10.30;99.90;;;;;;5064559;28;20069;-76
2021/05/24 06:18:26;;;;;;;1.90;0.47;;;10.40;99.90;;;;;;5051291;28;20539;-77
2021/05/24 06:20:52;;;;;;;1.20;0.32;;;10.40;99.90;;;;;;5049432;28;20111;-76
2021/05/24 06:23:18;;;;;;;1.33;0.30;;;10.40;99.90;;;;;;5068018;28;20108;-75
2021/05/24 06:25:45;;;;;;;0.38;0.30;;;10.50;99.90;;;;;;5062042;28;20112;-76
2021/05/24 06:28:12;;;;;;;0.88;0.40;;;10.50;99.90;;;;;;5069598;28;20093;-76
2021/05/24 06:30:38;;;;;;;1.25;0.32;;;10.60;99.90;;;;;;5066278;28;20092;-77
2021/05/24 06:33:04;;;;;;;0.47;0.20;;;10.60;99.90;;;;;;5066765;28;20080;-76
2021/05/24 06:35:30;;;;;;;1.13;0.38;;;10.70;99.90;;;;;;5050706;28;20085;-76
2021/05/24 06:37:56;;;;;;;1.58;0.40;;;10.80;99.90;;;;;;5047988;28;20862;-76
2021/05/24 06:40:21;;;;;;;1.20;0.28;;;10.80;99.90;;;;;;5033726;28;20076;-76
2021/05/24 06:42:47;;;;;;;2.20;0.25;;;10.80;99.90;;;;;;5047704;28;20081;-76
2021/05/24 06:45:19;;;;;;;0.52;0.20;;;10.80;99.90;;;;;;5069415;28;20104;-77
2021/05/24 06:47:45;;;;;;;1.13;0.40;;;11.10;99.90;;;;;;5052780;28;20089;-76
2021/05/24 06:50:11;;;;;;;0.40;0.20;;;11.30;99.90;;;;;;5067348;28;20104;-76
2021/05/24 06:52:36;;;;;;;0.60;0.50;;;11.50;99.90;;;;;;5068732;28;20529;-76
2021/05/24 06:55:03;;;;;;;1.27;0.30;;;11.60;99.90;;;;;;5068340;28;20576;-76
2021/05/24 06:57:29;;;;;;;2.92;0.77;;;11.70;99.90;;;;;;5052237;28;20080;-76
2021/05/24 06:59:55;;;;;;;3.10;0.50;;;11.70;99.90;;;;;;5051274;28;20081;-76
2021/05/24 07:02:20;;;;;;;1.95;0.75;;;11.70;99.90;;;;;;5050480;28;20541;-76
2021/05/24 07:04:46;;;;;;;0.85;0.60;;;11.90;99.90;;;;;;5049122;28;20216;-76
2021/05/24 07:07:11;;;;;;;1.77;0.50;;;12.00;99.90;;;;;;5067503;28;20092;-76
2021/05/24 07:09:37;;;;;;;0.80;0.30;;;12.00;99.90;;;;;;5068007;28;20614;-76
2021/05/24 07:12:05;;;;;;;2.30;0.30;;;12.00;99.90;;;;;;5068428;28;20104;-76
2021/05/24 07:14:30;;;;;;;0.65;0.22;;;11.90;99.90;;;;;;5069165;28;20093;-76
2021/05/24 07:16:56;;;;;;;3.75;0.85;;;12.10;99.90;;;;;;5051581;28;20452;-77
2021/05/24 07:19:22;;;;;;;1.00;0.20;;;12.10;99.90;;;;;;5064142;28;20076;-76
2021/05/24 07:21:48;;;;;;;0.50;0.30;;;12.10;99.90;;;;;;5066189;28;20089;-76
2021/05/24 07:24:14;;;;;;;0.90;0.28;;;12.20;99.90;;;;;;5062823;28;20630;-76
2021/05/24 07:26:39;;;;;;;1.33;0.30;;;12.40;99.90;;;;;;5061934;28;20155;-77
2021/05/24 07:29:05;;;;;;;4.30;0.50;;;12.30;99.90;;;;;;5059832;28;20093;-76
2021/05/24 07:31:31;;;;;;;1.48;0.40;;;12.30;99.90;;;;;;5059259;28;20073;-76
2021/05/24 07:33:56;;;;;;;1.20;0.40;;;12.30;99.90;;;;;;5048499;28;20089;-77
2021/05/24 07:36:25;;;;;;;1.80;0.30;;;12.30;99.90;;;;;;5056087;28;20460;-76
2021/05/24 07:38:50;;;;;;;1.73;0.40;;;12.30;99.90;;;;;;5048141;28;20084;-78
2021/05/24 07:41:16;;;;;;;0.40;0.20;;;12.30;99.90;;;;;;5052612;28;20080;-77
2021/05/24 07:43:42;;;;;;;1.25;0.50;;;12.40;99.90;;;;;;5065501;28;20081;-77
2021/05/24 07:46:08;;;;;;;0.22;0.20;;;12.40;99.90;;;;;;5061219;28;20088;-78
2021/05/24 07:48:34;;;;;;;1.17;0.30;;;12.40;99.90;;;;;;5063647;28;20545;-80
2021/05/24 07:51:03;;;;;;;0.63;0.30;;;12.40;99.90;;;;;;5062498;28;20103;-78
2021/05/24 07:53:29;;;;;;;0.32;0.20;;;12.50;99.90;;;;;;5067373;28;20069;-79
2021/05/24 07:55:55;;;;;;;0.32;0.20;;;12.70;99.90;;;;;;5056695;28;20078;-78
2021/05/24 07:58:21;;;;;;;0.85;0.25;;;12.70;99.90;;;;;;5054695;28;20196;-78
2021/05/24 08:00:47;;;;;;;0.32;0.25;;;12.70;99.90;;;;;;5056472;28;20087;-81
2021/05/24 08:03:13;;;;;;;0.95;0.40;;;12.70;99.90;;;;;;5054447;28;20164;-82
2021/05/24 08:05:38;;;;;;;3.53;0.55;;;12.70;99.90;;;;;;5072288;28;20124;-80
2021/05/24 08:08:05;;;;;;;3.47;0.38;;;12.70;99.90;;;;;;5053006;28;20094;-80
2021/05/24 08:10:31;;;;;;;0.32;0.20;;;12.80;99.90;;;;;;5060717;28;20140;-80
2021/05/24 08:12:57;;;;;;;0.50;0.30;;;12.90;99.90;;;;;;5047266;28;20180;-82
2021/05/24 08:15:30;;;;;;;1.50;0.60;;;12.90;99.90;;;;;;5052279;28;20100;-81
2021/05/24 08:18:01;;;;;;;0.73;0.20;;;12.80;99.90;;;;;;5051606;28;20107;-81
2021/05/24 08:20:28;;;;;;;0.75;0.30;;;12.90;99.90;;;;;;5063199;28;20099;-82
2021/05/24 08:22:54;;;;;;;1.73;0.63;;;13.00;99.90;;;;;;5051418;28;20476;-80
2021/05/24 08:25:19;;;;;;;0.77;0.50;;;13.00;99.90;;;;;;5066159;28;20187;-80
2021/05/24 08:27:45;;;;;;;1.58;0.50;;;13.10;99.90;;;;;;5050583;28;20124;-81
2021/05/24 08:30:12;;;;;;;0.60;0.57;;;13.20;99.90;;;;;;5071756;28;20084;-80
2021/05/24 08:32:38;;;;;;;0.93;0.35;;;13.20;99.90;;;;;;5065335;28;20745;-81
2021/05/24 08:35:04;;;;;;;23.27;1.45;;;13.20;99.90;;;;;;5065074;28;20139;-80
2021/05/24 08:37:30;;;;;;;0.98;0.50;;;13.10;99.90;;;;;;5037706;28;20081;-81
2021/05/24 08:39:56;;;;;;;0.98;0.50;;;13.20;99.90;;;;;;5068143;28;20073;-80
2021/05/24 08:42:24;;;;;;;0.88;0.30;;;13.20;99.90;;;;;;5067251;28;20091;-80
2021/05/24 08:44:49;;;;;;;0.73;0.40;;;13.20;99.90;;;;;;5060163;28;20089;-80
2021/05/24 08:47:15;;;;;;;2.28;0.50;;;13.30;99.90;;;;;;5065294;28;20073;-81
2021/05/24 08:49:41;;;;;;;1.08;0.50;;;13.30;99.90;;;;;;5055933;28;20073;-80
2021/05/24 08:52:06;;;;;;;1.77;0.70;;;13.20;99.90;;;;;;5055342;28;20073;-78
2021/05/24 08:54:37;;;;;;;2.35;0.57;;;13.30;99.90;;;;;;5049071;28;20103;-76
2021/05/24 08:57:04;;;;;;;1.30;0.40;;;13.20;99.90;;;;;;5067701;28;20584;-75
2021/05/24 08:59:29;;;;;;;3.15;0.60;;;13.20;99.90;;;;;;5067412;28;20073;-76
2021/05/24 09:01:55;;;;;;;0.88;0.40;;;13.30;99.90;;;;;;5050973;28;20084;-80
2021/05/24 09:04:20;;;;;;;3.03;0.60;;;13.20;99.90;;;;;;5049268;28;20549;-79
2021/05/24 09:06:49;;;;;;;1.33;0.70;;;13.20;99.90;;;;;;5044067;28;20073;-79
2021/05/24 09:09:16;;;;;;;1.73;0.30;;;13.20;99.90;;;;;;5052189;28;20674;-80
2021/05/24 09:11:46;;;;;;;0.77;0.30;;;13.30;99.90;;;;;;5067507;28;20076;-78
2021/05/24 09:14:20;;;;;;;0.73;0.32;;;13.20;99.90;;;;;;5055798;28;20076;-77
2021/05/24 09:17:01;;;;;;;1.17;0.38;;;13.20;99.90;;;;;;5063545;28;20077;-78
2021/05/24 09:19:35;;;;;;;0.55;0.32;;;13.10;99.90;;;;;;5052295;28;20076;-79
2021/05/24 09:22:06;;;;;;;4.28;0.47;;;13.20;99.90;;;;;;5043583;28;20081;-78
2021/05/24 09:24:37;;;;;;;1.33;0.75;;;13.10;99.90;;;;;;5045497;28;20105;-79
2021/05/24 09:27:05;;;;;;;1.27;0.50;;;13.10;99.90;;;;;;5064816;28;20065;-80
2021/05/24 09:29:46;;;;;;;0.75;0.50;;;13.10;99.90;;;;;;5052807;28;20118;-76
2021/05/24 09:32:20;;;;;;;1.38;0.45;;;13.00;99.90;;;;;;5054313;28;20171;-80
2021/05/24 09:34:49;;;;;;;0.70;0.40;;;13.00;99.90;;;;;;5053670;28;20095;-79
2021/05/24 09:37:17;;;;;;;0.80;0.60;;;12.90;99.90;;;;;;5055641;28;20127;-82
2021/05/24 09:39:43;;;;;;;0.47;0.40;;;13.00;99.90;;;;;;5070453;28;20084;-80
2021/05/24 09:42:11;;;;;;;1.13;0.45;;;13.00;99.90;;;;;;5056911;28;20541;-80
2021/05/24 09:44:50;;;;;;;2.20;0.75;;;13.00;99.90;;;;;;5053112;28;20115;-79
2021/05/24 09:47:38;;;;;;;0.82;0.32;;;13.00;99.90;;;;;;5081166;28;20071;-76
2021/05/24 09:50:15;;;;;;;1.15;0.55;;;13.00;99.90;;;;;;5095742;28;20493;-83
2021/05/24 09:52:42;;;;;;;0.40;0.40;;;12.90;99.90;;;;;;5058812;28;20073;-77
2021/05/24 09:55:16;;;;;;;2.10;0.20;;;13.00;99.90;;;;;;5071865;28;20097;-78
2021/05/24 09:57:51;;;;;;;0.20;0.20;;;13.00;99.90;;;;;;5059407;28;20156;-79
2021/05/24 10:00:21;;;;;;;1.23;0.43;;;13.00;99.90;;;;;;5072863;28;20123;-79
2021/05/24 10:02:47;;;;;;;2.00;0.98;;;13.00;99.90;;;;;;5055534;28;20077;-79
2021/05/24 10:05:13;;;;;;;1.17;0.60;;;13.00;99.90;;;;;;5073053;28;20093;-78
2021/05/24 10:07:39;;;;;;;3.25;0.50;;;13.00;99.90;;;;;;5065479;28;20096;-78
2021/05/24 10:10:05;;;;;;;1.13;0.70;;;13.00;99.90;;;;;;5054649;28;20448;-78
2021/05/24 10:12:31;;;;;;;3.03;0.43;;;13.10;99.90;;;;;;5072693;28;20073;-78
2021/05/24 10:14:59;;;;;;;0.90;0.50;;;13.10;99.90;;;;;;5052436;28;20081;-78
2021/05/24 10:17:25;;;;;;;0.95;0.60;;;13.20;99.90;;;;;;5063708;28;20062;-78
2021/05/24 10:19:51;;;;;;;0.73;0.40;;;13.30;99.90;;;;;;5061760;28;20069;-78
2021/05/24 10:22:20;;;;;;;0.80;0.47;;;13.40;99.90;;;;;;5045796;28;20130;-79
2021/05/24 10:24:48;;;;;;;2.65;0.77;;;13.50;99.90;;;;;;5071132;28;20188;-77
2021/05/24 10:27:14;;;;;;;1.05;0.50;;;13.60;99.90;;;;;;5050170;28;20077;-78
2021/05/24 10:29:40;;;;;;;0.60;0.40;;;13.70;99.90;;;;;;5072289;28;20111;-79
2021/05/24 10:32:09;;;;;;;1.95;0.45;;;13.80;99.90;;;;;;5072725;28;20089;-79
2021/05/24 10:34:39;;;;;;;0.93;0.50;;;13.90;99.90;;;;;;5070677;28;20100;-79
2021/05/24 10:37:18;;;;;;;2.35;0.47;;;13.90;99.90;;;;;;5070653;28;20097;-79
2021/05/24 10:40:02;;;;;;;0.52;0.40;;;14.00;99.90;;;;;;5058527;28;20154;-78
2021/05/24 10:42:40;;;;;;;1.92;0.57;;;14.20;99.90;;;;;;5053766;28;20131;-79
2021/05/24 10:45:24;;;;;;;0.80;0.55;;;14.30;99.90;;;;;;5052728;28;20088;-79
2021/05/24 10:47:54;;;;;;;1.65;0.52;;;14.50;99.90;;;;;;5087092;28;20077;-78
2021/05/24 10:50:21;;;;;;;1.50;0.40;;;14.50;99.90;;;;;;5075525;28;20130;-78
2021/05/24 10:53:00;;;;;;;1.13;0.40;;;14.60;99.90;;;;;;5051775;28;20093;-76
2021/05/24 10:55:42;;;;;;;2.47;0.35;;;14.60;99.90;;;;;;5069001;28;20623;-77
2021/05/24 10:58:11;;;;;;;2.58;0.40;;;14.70;99.90;;;;;;5055479;28;20166;-78
2021/05/24 11:01:00;;;;;;;1.30;0.60;;;14.60;99.90;;;;;;5080091;28;20092;-79
2021/05/24 11:03:27;;;;;;;1.55;0.50;;;14.70;99.90;;;;;;5059305;28;20087;-79
2021/05/24 11:06:11;;;;;;;0.80;0.52;;;14.80;99.90;;;;;;5054677;28;20192;-79
2021/05/24 11:08:39;;;;;;;1.00;0.60;;;14.80;99.90;;;;;;5065971;28;20092;-77
2021/05/24 11:11:30;;;;;;;0.95;0.40;;;14.80;99.90;;;;;;5068838;28;20073;-75
2021/05/24 11:14:02;;;;;;;1.25;0.50;;;14.90;99.90;;;;;;5051998;28;20091;-76
2021/05/24 11:16:29;;;;;;;1.00;0.50;;;14.80;99.90;;;;;;5051158;28;20092;-77
2021/05/24 11:19:08;;;;;;;1.55;0.30;;;14.90;99.90;;;;;;5073198;28;20068;-76
2021/05/24 11:21:35;;;;;;;4.22;0.70;;;14.90;99.90;;;;;;5069604;28;20073;-76
2021/05/24 11:24:08;;;;;;;0.50;0.40;;;14.90;99.90;;;;;;5065569;28;20096;-76
2021/05/24 11:26:37;;;;;;;0.50;0.40;;;15.00;99.90;;;;;;5033775;28;20096;-76
2021/05/24 11:29:15;;;;;;;1.15;0.57;;;15.00;99.90;;;;;;5063088;28;20487;-76
2021/05/24 11:31:46;;;;;;;0.60;0.35;;;15.00;99.90;;;;;;5068711;28;20065;-76
2021/05/24 11:34:25;;;;;;;1.33;0.73;;;15.20;99.90;;;;;;5063030;28;20085;-75
2021/05/24 11:36:52;;;;;;;0.50;0.50;;;15.10;99.90;;;;;;5067016;28;20080;-75
2021/05/24 11:39:26;;;;;;;1.67;0.50;;;15.20;99.90;;;;;;5068099;28;20109;-75
2021/05/24 11:41:52;;;;;;;;;;;15.20;99.90;;;;;;5062742;28;20068;-76
2021/05/24 11:44:20;;;;;;;1.42;0.55;;;15.20;99.90;;;;;;5066532;28;19984;-75
2021/05/24 11:46:54;;;;;;;0.75;0.60;;;15.20;99.90;;;;;;5069597;28;20541;-77
2021/05/24 11:49:30;;;;;;;0.82;0.30;;;15.40;99.90;;;;;;5042702;28;20621;-77
2021/05/24 11:51:57;;;;;;;0.63;0.32;;;15.40;99.90;;;;;;5068207;28;20553;-76
2021/05/24 11:54:25;;;;;;;2.05;0.88;;;15.50;99.90;;;;;;5041568;28;20123;-76
2021/05/24 11:56:54;;;;;;;1.60;0.52;;;15.60;99.90;;;;;;5059701;28;20069;-77
2021/05/24 11:59:22;;;;;;;2.00;0.60;;;15.60;99.90;;;;;;5050150;28;20225;-77
2021/05/24 12:01:52;;;;;;;3.58;0.68;;;15.50;99.90;;;;;;5053621;28;20448;-78
2021/05/24 12:04:19;;;;;;;0.95;0.30;;;15.60;99.90;;;;;;5060391;28;20137;-77
2021/05/24 12:06:47;;;;;;;1.00;0.43;;;15.60;99.90;;;;;;5069313;28;20069;-78
2021/05/24 12:09:15;;;;;;;1.55;0.68;;;15.60;99.90;;;;;;5070214;28;20093;-78
2021/05/24 12:11:57;;;;;;;1.85;0.60;;;15.70;99.90;;;;;;5051010;28;20073;-78
2021/05/24 12:14:24;;;;;;;1.23;0.57;;;15.80;99.90;;;;;;5048376;28;20487;-76
2021/05/24 12:16:52;;;;;;;0.95;0.40;;;15.80;99.90;;;;;;5046720;28;20065;-76
2021/05/24 12:19:25;;;;;;;1.88;0.50;;;15.80;99.90;;;;;;5062752;28;20906;-75
2021/05/24 12:21:54;;;;;;;1.60;0.60;;;15.80;99.90;;;;;;5061191;28;20087;-76
2021/05/24 12:24:20;;;;;;;0.60;0.45;;;15.80;99.90;;;;;;5065749;28;20132;-75
2021/05/24 12:26:54;;;;;;;0.93;0.55;;;15.90;99.90;;;;;;5062758;28;20150;-74
2021/05/24 12:29:28;;;;;;;1.92;1.40;;;15.90;99.90;;;;;;5054537;28;20571;-77
2021/05/24 12:32:00;;;;;;;2.97;0.63;;;15.90;99.90;;;;;;5065457;28;20089;-76
2021/05/24 12:34:31;;;;;;;1.90;0.55;;;15.90;99.90;;;;;;5060984;28;20101;-75
2021/05/24 12:36:59;;;;;;;3.40;0.85;;;15.90;99.90;;;;;;5033272;28;20065;-76
2021/05/24 12:39:32;;;;;;;1.05;0.60;;;15.80;99.90;;;;;;5066193;28;20077;-77
2021/05/24 12:42:01;;;;;;;1.75;0.60;;;15.70;99.90;;;;;;5047187;28;20074;-78
2021/05/24 12:44:28;;;;;;;1.25;0.52;;;15.70;99.90;;;;;;5054848;28;20108;-78
2021/05/24 12:47:15;;;;;;;0.85;0.55;;;15.70;99.90;;;;;;5061288;28;20077;-77
2021/05/24 12:49:43;;;;;;;1.75;0.60;;;15.70;99.90;;;;;;5059565;28;20598;-77
2021/05/24 12:52:10;;;;;;;3.90;0.50;;;15.70;99.90;;;;;;5061390;28;20115;-76
2021/05/24 12:55:12;;;;;;;1.00;0.70;;;15.70;99.90;;;;;;5067140;28;20084;-77